sensor_id;sensor_type;location;lat;lon;timestamp;pressure;altitude;pressure_sealevel;temperature;humidity
23996;BME280;12207;50.076;8.848;2022-10-16T00:00:43;99835.66;;;15.37;100.00
23996;BME280;12207;50.076;8.848;2022-10-16T00:03:10;99841.66;;;15.36;100.00
23996;BME280;12207;50.076;8.848;2022-10-16T00:05:40;99847.00;;;15.44;100.00
23996;BME280;12207;50.076;8.848;2022-10-16T00:08:07;99838.28;;;15.39;100.00
23996;BME280;12207;50.076;8.848;2022-10-16T00:10:34;99832.22;;;15.35;100.00
23996;BME280;12207;50.076;8.848;2022-10-16T00:13:01;99828.72;;;15.33;100.00
23996;BME280;12207;50.076;8.848;2022-10-16T00:15:27;99819.28;;;15.34;100.00
23996;BME280;12207;50.076;8.848;2022-10-16T00:17:54;99816.63;;;15.29;100.00
23996;BME280;12207;50.076;8.848;2022-10-16T00:20:20;99817.41;;;15.26;100.00
23996;BME280;12207;50.076;8.848;2022-10-16T00:22:47;99814.69;;;15.22;100.00
23996;BME280;12207;50.076;8.848;2022-10-16T00:25:14;99812.03;;;15.19;100.00
23996;BME280;12207;50.076;8.848;2022-10-16T00:27:40;99813.69;;;15.17;100.00
23996;BME280;12207;50.076;8.848;2022-10-16T00:30:07;99817.13;;;15.16;100.00
23996;BME280;12207;50.076;8.848;2022-10-16T00:32:34;99834.16;;;15.12;100.00
23996;BME280;12207;50.076;8.848;2022-10-16T00:35:01;99829.03;;;15.14;100.00
23996;BME280;12207;50.076;8.848;2022-10-16T00:37:27;99841.94;;;15.15;100.00
23996;BME280;12207;50.076;8.848;2022-10-16T00:39:54;99838.59;;;15.18;100.00
23996;BME280;12207;50.076;8.848;2022-10-16T00:42:20;99826.56;;;15.17;100.00
23996;BME280;12207;50.076;8.848;2022-10-16T00:47:19;99838.69;;;15.21;100.00
23996;BME280;12207;50.076;8.848;2022-10-16T00:49:46;99828.41;;;15.21;100.00
23996;BME280;12207;50.076;8.848;2022-10-16T00:52:13;99832.75;;;15.23;100.00
23996;BME280;12207;50.076;8.848;2022-10-16T00:54:40;99830.03;;;15.17;100.00
23996;BME280;12207;50.076;8.848;2022-10-16T00:57:07;99828.25;;;15.16;100.00
23996;BME280;12207;50.076;8.848;2022-10-16T00:59:35;99825.75;;;15.18;100.00
23996;BME280;12207;50.076;8.848;2022-10-16T01:02:03;99829.13;;;15.17;100.00
23996;BME280;12207;50.076;8.848;2022-10-16T01:04:32;99831.59;;;15.14;100.00
23996;BME280;12207;50.076;8.848;2022-10-16T01:09:38;99837.09;;;15.26;100.00
23996;BME280;12207;50.076;8.848;2022-10-16T01:12:10;99833.63;;;15.24;100.00
23996;BME280;12207;50.076;8.848;2022-10-16T01:17:08;99834.63;;;15.31;100.00
23996;BME280;12207;50.076;8.848;2022-10-16T01:22:21;99854.50;;;15.36;100.00
23996;BME280;12207;50.076;8.848;2022-10-16T01:24:51;99858.03;;;15.40;100.00
23996;BME280;12207;50.076;8.848;2022-10-16T01:27:21;99864.78;;;15.36;100.00
23996;BME280;12207;50.076;8.848;2022-10-16T01:30:13;99864.94;;;15.41;100.00
23996;BME280;12207;50.076;8.848;2022-10-16T01:32:40;99870.16;;;15.44;100.00
23996;BME280;12207;50.076;8.848;2022-10-16T01:40:15;99868.59;;;15.50;100.00
23996;BME280;12207;50.076;8.848;2022-10-16T01:42:44;99870.34;;;15.52;100.00
23996;BME280;12207;50.076;8.848;2022-10-16T01:45:13;99871.25;;;15.54;100.00
23996;BME280;12207;50.076;8.848;2022-10-16T01:47:41;99865.91;;;15.46;100.00
23996;BME280;12207;50.076;8.848;2022-10-16T01:50:08;99853.09;;;15.47;100.00
23996;BME280;12207;50.076;8.848;2022-10-16T01:52:35;99853.88;;;15.45;100.00
23996;BME280;12207;50.076;8.848;2022-10-16T01:55:03;99837.59;;;15.44;100.00
23996;BME280;12207;50.076;8.848;2022-10-16T01:57:32;99841.72;;;15.39;100.00
23996;BME280;12207;50.076;8.848;2022-10-16T02:00:01;99836.59;;;15.39;100.00
23996;BME280;12207;50.076;8.848;2022-10-16T02:02:28;99847.72;;;15.38;100.00
23996;BME280;12207;50.076;8.848;2022-10-16T02:05:02;99863.13;;;15.38;100.00
23996;BME280;12207;50.076;8.848;2022-10-16T02:07:30;99870.88;;;15.40;100.00
23996;BME280;12207;50.076;8.848;2022-10-16T02:09:57;99875.16;;;15.39;100.00
23996;BME280;12207;50.076;8.848;2022-10-16T02:12:26;99863.94;;;15.37;100.00
23996;BME280;12207;50.076;8.848;2022-10-16T02:14:53;99875.06;;;15.36;100.00
23996;BME280;12207;50.076;8.848;2022-10-16T02:17:20;99876.06;;;15.41;100.00
23996;BME280;12207;50.076;8.848;2022-10-16T02:19:47;99876.94;;;15.42;100.00
23996;BME280;12207;50.076;8.848;2022-10-16T02:22:22;99874.22;;;15.37;100.00
23996;BME280;12207;50.076;8.848;2022-10-16T02:27:25;99883.72;;;15.38;100.00
23996;BME280;12207;50.076;8.848;2022-10-16T02:29:53;99883.53;;;15.32;100.00
23996;BME280;12207;50.076;8.848;2022-10-16T02:32:26;99875.75;;;15.29;100.00
23996;BME280;12207;50.076;8.848;2022-10-16T02:34:55;99878.50;;;15.35;100.00
23996;BME280;12207;50.076;8.848;2022-10-16T02:37:22;99876.63;;;15.31;100.00
23996;BME280;12207;50.076;8.848;2022-10-16T02:39:49;99876.69;;;15.33;100.00
23996;BME280;12207;50.076;8.848;2022-10-16T02:42:17;99881.78;;;15.31;100.00
23996;BME280;12207;50.076;8.848;2022-10-16T02:44:43;99875.63;;;15.24;100.00
23996;BME280;12207;50.076;8.848;2022-10-16T02:47:10;99871.16;;;15.19;100.00
23996;BME280;12207;50.076;8.848;2022-10-16T02:49:36;99873.75;;;15.19;100.00
23996;BME280;12207;50.076;8.848;2022-10-16T02:52:03;99873.81;;;15.22;100.00
23996;BME280;12207;50.076;8.848;2022-10-16T02:54:29;99883.25;;;15.21;100.00
23996;BME280;12207;50.076;8.848;2022-10-16T02:56:56;99873.97;;;15.26;100.00
23996;BME280;12207;50.076;8.848;2022-10-16T02:59:23;99874.75;;;15.24;100.00
23996;BME280;12207;50.076;8.848;2022-10-16T03:01:49;99876.72;;;15.34;100.00
23996;BME280;12207;50.076;8.848;2022-10-16T03:04:16;99872.25;;;15.27;100.00
23996;BME280;12207;50.076;8.848;2022-10-16T03:06:42;99874.84;;;15.27;100.00
23996;BME280;12207;50.076;8.848;2022-10-16T03:09:09;99881.69;;;15.26;100.00
23996;BME280;12207;50.076;8.848;2022-10-16T03:11:35;99889.22;;;15.20;100.00
23996;BME280;12207;50.076;8.848;2022-10-16T03:14:02;99900.38;;;15.21;100.00
23996;BME280;12207;50.076;8.848;2022-10-16T03:16:28;99893.66;;;15.26;100.00
23996;BME280;12207;50.076;8.848;2022-10-16T03:18:55;99895.22;;;15.21;100.00
23996;BME280;12207;50.076;8.848;2022-10-16T03:21:21;99900.38;;;15.21;100.00
23996;BME280;12207;50.076;8.848;2022-10-16T03:23:48;99907.34;;;15.25;100.00
23996;BME280;12207;50.076;8.848;2022-10-16T03:26:14;99903.94;;;15.26;100.00
23996;BME280;12207;50.076;8.848;2022-10-16T03:28:41;99904.56;;;15.17;100.00
23996;BME280;12207;50.076;8.848;2022-10-16T03:31:07;99904.69;;;15.22;100.00
23996;BME280;12207;50.076;8.848;2022-10-16T03:33:34;99906.28;;;15.18;100.00
23996;BME280;12207;50.076;8.848;2022-10-16T03:36:01;99905.38;;;15.16;100.00
23996;BME280;12207;50.076;8.848;2022-10-16T03:38:27;99912.31;;;15.19;100.00
23996;BME280;12207;50.076;8.848;2022-10-16T03:40:54;99910.75;;;15.24;100.00
23996;BME280;12207;50.076;8.848;2022-10-16T03:43:20;99915.09;;;15.26;100.00
23996;BME280;12207;50.076;8.848;2022-10-16T03:45:47;99911.59;;;15.23;100.00
23996;BME280;12207;50.076;8.848;2022-10-16T03:48:13;99911.59;;;15.23;100.00
23996;BME280;12207;50.076;8.848;2022-10-16T03:50:40;99916.75;;;15.24;100.00
23996;BME280;12207;50.076;8.848;2022-10-16T03:53:06;99914.97;;;15.22;100.00
23996;BME280;12207;50.076;8.848;2022-10-16T03:55:33;99908.03;;;15.19;100.00
23996;BME280;12207;50.076;8.848;2022-10-16T03:57:59;99910.75;;;15.25;100.00
23996;BME280;12207;50.076;8.848;2022-10-16T04:00:26;99920.06;;;15.20;100.00
23996;BME280;12207;50.076;8.848;2022-10-16T04:02:52;99928.16;;;15.34;100.00
23996;BME280;12207;50.076;8.848;2022-10-16T04:05:19;99920.25;;;15.26;100.00
23996;BME280;12207;50.076;8.848;2022-10-16T04:07:45;99929.56;;;15.23;100.00
23996;BME280;12207;50.076;8.848;2022-10-16T04:10:12;99918.19;;;15.15;100.00
23996;BME280;12207;50.076;8.848;2022-10-16T04:12:38;99926.88;;;15.20;100.00
23996;BME280;12207;50.076;8.848;2022-10-16T04:15:05;99914.94;;;15.20;100.00
23996;BME280;12207;50.076;8.848;2022-10-16T04:17:31;99916.59;;;15.20;100.00
23996;BME280;12207;50.076;8.848;2022-10-16T04:19:58;99903.72;;;15.18;100.00
23996;BME280;12207;50.076;8.848;2022-10-16T04:22:24;99913.06;;;15.15;100.00
23996;BME280;12207;50.076;8.848;2022-10-16T04:24:51;99929.59;;;15.24;100.00
23996;BME280;12207;50.076;8.848;2022-10-16T04:27:17;99934.97;;;15.32;100.00
23996;BME280;12207;50.076;8.848;2022-10-16T04:29:44;99945.19;;;15.31;100.00
23996;BME280;12207;50.076;8.848;2022-10-16T04:32:10;99939.84;;;15.23;100.00
23996;BME280;12207;50.076;8.848;2022-10-16T04:34:38;99946.66;;;15.21;100.00
23996;BME280;12207;50.076;8.848;2022-10-16T04:37:05;99959.63;;;15.25;100.00
23996;BME280;12207;50.076;8.848;2022-10-16T04:39:31;99953.53;;;15.22;100.00
23996;BME280;12207;50.076;8.848;2022-10-16T04:41:58;99944.78;;;15.17;100.00
23996;BME280;12207;50.076;8.848;2022-10-16T04:44:24;99951.78;;;15.21;100.00
23996;BME280;12207;50.076;8.848;2022-10-16T04:46:51;99948.34;;;15.20;100.00
23996;BME280;12207;50.076;8.848;2022-10-16T04:49:17;99933.03;;;15.25;100.00
23996;BME280;12207;50.076;8.848;2022-10-16T04:51:44;99932.09;;;15.21;100.00
23996;BME280;12207;50.076;8.848;2022-10-16T04:54:11;99940.81;;;15.26;100.00
23996;BME280;12207;50.076;8.848;2022-10-16T04:56:37;99942.47;;;15.24;100.00
23996;BME280;12207;50.076;8.848;2022-10-16T04:59:09;99940.56;;;15.19;100.00
23996;BME280;12207;50.076;8.848;2022-10-16T05:01:36;99940.63;;;15.20;100.00
23996;BME280;12207;50.076;8.848;2022-10-16T05:04:02;99932.00;;;15.18;100.00
23996;BME280;12207;50.076;8.848;2022-10-16T05:06:29;99941.41;;;15.18;100.00
23996;BME280;12207;50.076;8.848;2022-10-16T05:08:55;99939.72;;;15.18;100.00
23996;BME280;12207;50.076;8.848;2022-10-16T05:11:22;99941.34;;;15.16;100.00
23996;BME280;12207;50.076;8.848;2022-10-16T05:13:48;99946.56;;;15.18;100.00
23996;BME280;12207;50.076;8.848;2022-10-16T05:16:15;99944.69;;;15.12;100.00
23996;BME280;12207;50.076;8.848;2022-10-16T05:18:41;99948.34;;;15.20;100.00
23996;BME280;12207;50.076;8.848;2022-10-16T05:21:08;99950.09;;;15.21;100.00
23996;BME280;12207;50.076;8.848;2022-10-16T05:23:34;99950.88;;;15.19;100.00
23996;BME280;12207;50.076;8.848;2022-10-16T05:26:01;99955.16;;;15.20;100.00
23996;BME280;12207;50.076;8.848;2022-10-16T05:28:28;99951.63;;;15.16;100.00
23996;BME280;12207;50.076;8.848;2022-10-16T05:30:56;99947.34;;;15.15;100.00
23996;BME280;12207;50.076;8.848;2022-10-16T05:33:23;99948.13;;;15.13;100.00
23996;BME280;12207;50.076;8.848;2022-10-16T05:35:50;99946.38;;;15.12;100.00
23996;BME280;12207;50.076;8.848;2022-10-16T05:38:17;99959.34;;;15.16;100.00
23996;BME280;12207;50.076;8.848;2022-10-16T05:40:50;99964.75;;;15.25;100.00
23996;BME280;12207;50.076;8.848;2022-10-16T05:43:16;99974.00;;;15.19;100.00
23996;BME280;12207;50.076;8.848;2022-10-16T05:45:43;99964.28;;;15.09;100.00
23996;BME280;12207;50.076;8.848;2022-10-16T05:48:09;99959.94;;;15.08;100.00
23996;BME280;12207;50.076;8.848;2022-10-16T05:50:36;99946.94;;;15.01;100.00
23996;BME280;12207;50.076;8.848;2022-10-16T05:53:02;99941.66;;;14.97;100.00
23996;BME280;12207;50.076;8.848;2022-10-16T05:55:29;99945.19;;;15.00;100.00
23996;BME280;12207;50.076;8.848;2022-10-16T05:57:55;99954.63;;;15.01;100.00
23996;BME280;12207;50.076;8.848;2022-10-16T06:00:22;99964.19;;;15.06;100.00
23996;BME280;12207;50.076;8.848;2022-10-16T06:02:48;99964.19;;;15.06;100.00
23996;BME280;12207;50.076;8.848;2022-10-16T06:05:15;99968.59;;;15.10;100.00
23996;BME280;12207;50.076;8.848;2022-10-16T06:07:41;99977.31;;;15.15;100.00
23996;BME280;12207;50.076;8.848;2022-10-16T06:10:08;99990.19;;;15.16;100.00
23996;BME280;12207;50.076;8.848;2022-10-16T06:12:35;99988.50;;;15.17;100.00
23996;BME280;12207;50.076;8.848;2022-10-16T06:15:01;99984.25;;;15.17;100.00
23996;BME280;12207;50.076;8.848;2022-10-16T06:17:28;99989.41;;;15.19;100.00
23996;BME280;12207;50.076;8.848;2022-10-16T06:19:54;99996.50;;;15.26;100.00
23996;BME280;12207;50.076;8.848;2022-10-16T06:22:21;100000.16;;;15.34;100.00
23996;BME280;12207;50.076;8.848;2022-10-16T06:24:47;100009.81;;;15.41;100.00
23996;BME280;12207;50.076;8.848;2022-10-16T06:27:15;100017.25;;;15.32;100.00
23996;BME280;12207;50.076;8.848;2022-10-16T06:29:41;100011.13;;;15.28;100.00
23996;BME280;12207;50.076;8.848;2022-10-16T06:32:09;100015.41;;;15.28;100.00
23996;BME280;12207;50.076;8.848;2022-10-16T06:34:36;100017.16;;;15.29;100.00
23996;BME280;12207;50.076;8.848;2022-10-16T06:37:02;100020.72;;;15.34;100.00
23996;BME280;12207;50.076;8.848;2022-10-16T06:39:29;100024.38;;;15.41;100.00
23996;BME280;12207;50.076;8.848;2022-10-16T06:41:55;100015.72;;;15.39;100.00
23996;BME280;12207;50.076;8.848;2022-10-16T06:44:22;100014.97;;;15.43;100.00
23996;BME280;12207;50.076;8.848;2022-10-16T06:46:48;100010.78;;;15.46;100.00
23996;BME280;12207;50.076;8.848;2022-10-16T06:49:15;100018.50;;;15.46;100.00
23996;BME280;12207;50.076;8.848;2022-10-16T06:51:47;100018.88;;;15.59;100.00
23996;BME280;12207;50.076;8.848;2022-10-16T06:54:14;100022.16;;;15.55;100.00
23996;BME280;12207;50.076;8.848;2022-10-16T06:56:41;100024.91;;;15.61;100.00
23996;BME280;12207;50.076;8.848;2022-10-16T06:59:08;100024.81;;;15.58;100.00
23996;BME280;12207;50.076;8.848;2022-10-16T07:01:34;100016.38;;;15.62;100.00
23996;BME280;12207;50.076;8.848;2022-10-16T07:04:01;100016.31;;;15.59;100.00
23996;BME280;12207;50.076;8.848;2022-10-16T07:06:30;100020.19;;;15.75;100.00
23996;BME280;12207;50.076;8.848;2022-10-16T07:08:57;100023.03;;;15.85;100.00
23996;BME280;12207;50.076;8.848;2022-10-16T07:11:23;100020.81;;;15.98;100.00
23996;BME280;12207;50.076;8.848;2022-10-16T07:13:50;100027.06;;;16.07;100.00
23996;BME280;12207;50.076;8.848;2022-10-16T07:16:18;100033.25;;;16.14;100.00
23996;BME280;12207;50.076;8.848;2022-10-16T07:18:45;100043.13;;;16.30;100.00
23996;BME280;12207;50.076;8.848;2022-10-16T07:21:14;100045.72;;;16.30;100.00
23996;BME280;12207;50.076;8.848;2022-10-16T07:23:41;100051.94;;;16.40;100.00
23996;BME280;12207;50.076;8.848;2022-10-16T07:26:07;100051.16;;;16.43;100.00
23996;BME280;12207;50.076;8.848;2022-10-16T07:28:34;100054.53;;;16.40;100.00
23996;BME280;12207;50.076;8.848;2022-10-16T07:31:01;100065.91;;;16.48;100.00
23996;BME280;12207;50.076;8.848;2022-10-16T07:33:28;100067.00;;;16.58;100.00
23996;BME280;12207;50.076;8.848;2022-10-16T07:35:55;100066.31;;;16.65;100.00
23996;BME280;12207;50.076;8.848;2022-10-16T07:38:22;100079.41;;;16.74;100.00
23996;BME280;12207;50.076;8.848;2022-10-16T07:40:55;100089.81;;;16.77;100.00
23996;BME280;12207;50.076;8.848;2022-10-16T07:43:22;100093.19;;;16.75;100.00
23996;BME280;12207;50.076;8.848;2022-10-16T07:45:48;100076.53;;;16.62;100.00
23996;BME280;12207;50.076;8.848;2022-10-16T07:48:16;100089.09;;;16.50;100.00
23996;BME280;12207;50.076;8.848;2022-10-16T07:50:44;100103.00;;;16.55;100.00
23996;BME280;12207;50.076;8.848;2022-10-16T07:53:10;100100.41;;;16.55;100.00
23996;BME280;12207;50.076;8.848;2022-10-16T07:55:37;100109.00;;;16.55;100.00
23996;BME280;12207;50.076;8.848;2022-10-16T07:58:05;100105.50;;;16.53;100.00
23996;BME280;12207;50.076;8.848;2022-10-16T08:00:32;100103.00;;;16.55;100.00
23996;BME280;12207;50.076;8.848;2022-10-16T08:02:58;100105.56;;;16.55;100.00
23996;BME280;12207;50.076;8.848;2022-10-16T08:05:29;100102.34;;;16.63;100.00
23996;BME280;12207;50.076;8.848;2022-10-16T08:07:55;100100.78;;;16.70;100.00
23996;BME280;12207;50.076;8.848;2022-10-16T08:10:23;100104.28;;;16.72;100.00
23996;BME280;12207;50.076;8.848;2022-10-16T08:12:49;100111.50;;;16.84;100.00
23996;BME280;12207;50.076;8.848;2022-10-16T08:15:16;100118.66;;;16.96;100.00
23996;BME280;12207;50.076;8.848;2022-10-16T08:17:43;100130.63;;;16.95;100.00
23996;BME280;12207;50.076;8.848;2022-10-16T08:20:09;100134.84;;;16.92;100.00
23996;BME280;12207;50.076;8.848;2022-10-16T08:22:36;100139.00;;;16.85;100.00
23996;BME280;12207;50.076;8.848;2022-10-16T08:25:04;100144.22;;;16.88;100.00
23996;BME280;12207;50.076;8.848;2022-10-16T08:27:31;100145.03;;;16.85;100.00
23996;BME280;12207;50.076;8.848;2022-10-16T08:29:57;100149.22;;;16.82;100.00
23996;BME280;12207;50.076;8.848;2022-10-16T08:32:24;100152.81;;;16.89;100.00
23996;BME280;12207;50.076;8.848;2022-10-16T08:34:51;100161.19;;;16.80;100.00
23996;BME280;12207;50.076;8.848;2022-10-16T08:37:17;100161.28;;;16.83;100.00
23996;BME280;12207;50.076;8.848;2022-10-16T08:39:44;100161.28;;;16.83;100.00
23996;BME280;12207;50.076;8.848;2022-10-16T08:44:41;100172.34;;;16.79;100.00
23996;BME280;12207;50.076;8.848;2022-10-16T08:47:13;100179.91;;;16.74;100.00
23996;BME280;12207;50.076;8.848;2022-10-16T08:49:43;100179.81;;;16.70;100.00
23996;BME280;12207;50.076;8.848;2022-10-16T08:52:16;100180.81;;;16.75;100.00
23996;BME280;12207;50.076;8.848;2022-10-16T08:54:44;100186.16;;;16.81;100.00
23996;BME280;12207;50.076;8.848;2022-10-16T08:57:13;100187.06;;;16.83;100.00
23996;BME280;12207;50.076;8.848;2022-10-16T08:59:40;100192.34;;;16.89;100.00
23996;BME280;12207;50.076;8.848;2022-10-16T09:02:19;100194.44;;;17.04;100.00
23996;BME280;12207;50.076;8.848;2022-10-16T09:04:54;100196.28;;;17.08;100.00
23996;BME280;12207;50.076;8.848;2022-10-16T09:07:32;100196.53;;;17.17;100.00
23996;BME280;12207;50.076;8.848;2022-10-16T09:10:05;100207.06;;;17.26;100.00
23996;BME280;12207;50.076;8.848;2022-10-16T09:12:37;100204.56;;;17.29;100.00
23996;BME280;12207;50.076;8.848;2022-10-16T09:17:44;100193.09;;;17.18;100.00
23996;BME280;12207;50.076;8.848;2022-10-16T09:20:22;100216.53;;;17.27;100.00
23996;BME280;12207;50.076;8.848;2022-10-16T09:22:55;100217.59;;;17.36;100.00
23996;BME280;12207;50.076;8.848;2022-10-16T09:25:27;100217.72;;;17.40;100.00
23996;BME280;12207;50.076;8.848;2022-10-16T09:27:54;100221.25;;;17.44;100.00
23996;BME280;12207;50.076;8.848;2022-10-16T09:30:21;100226.69;;;17.56;100.00
23996;BME280;12207;50.076;8.848;2022-10-16T09:32:50;100238.06;;;17.64;100.00
23996;BME280;12207;50.076;8.848;2022-10-16T09:35:21;100236.44;;;17.69;100.00
23996;BME280;12207;50.076;8.848;2022-10-16T09:37:49;100236.84;;;17.85;100.00
23996;BME280;12207;50.076;8.848;2022-10-16T09:42:54;100239.66;;;17.95;100.00
23996;BME280;12207;50.076;8.848;2022-10-16T09:45:23;100249.31;;;18.04;100.00
23996;BME280;12207;50.076;8.848;2022-10-16T09:47:49;100244.28;;;18.10;100.00
23996;BME280;12207;50.076;8.848;2022-10-16T09:50:26;100247.78;;;18.14;100.00
23996;BME280;12207;50.076;8.848;2022-10-16T09:53:10;100253.91;;;18.17;100.00
23996;BME280;12207;50.076;8.848;2022-10-16T09:55:47;100258.25;;;18.20;100.00
23996;BME280;12207;50.076;8.848;2022-10-16T09:58:13;100259.28;;;18.27;100.00
23996;BME280;12207;50.076;8.848;2022-10-16T10:00:41;100250.41;;;18.15;100.00
23996;BME280;12207;50.076;8.848;2022-10-16T10:03:10;100259.94;;;18.18;100.00
23996;BME280;12207;50.076;8.848;2022-10-16T10:05:37;100255.78;;;18.25;100.00
23996;BME280;12207;50.076;8.848;2022-10-16T10:08:05;100256.25;;;18.48;100.00
23996;BME280;12207;50.076;8.848;2022-10-16T10:10:33;100259.97;;;18.62;100.00
23996;BME280;12207;50.076;8.848;2022-10-16T10:13:00;100254.56;;;18.94;100.00
23996;BME280;12207;50.076;8.848;2022-10-16T10:15:27;100257.19;;;19.45;100.00
23996;BME280;12207;50.076;8.848;2022-10-16T10:17:57;100268.41;;;20.00;100.00
23996;BME280;12207;50.076;8.848;2022-10-16T10:20:28;100271.94;;;20.07;100.00
23996;BME280;12207;50.076;8.848;2022-10-16T10:22:55;100272.47;;;19.83;100.00
23996;BME280;12207;50.076;8.848;2022-10-16T10:35:35;100263.94;;;18.87;100.00
23996;BME280;12207;50.076;8.848;2022-10-16T10:38:16;100260.66;;;18.96;100.00
23996;BME280;12207;50.076;8.848;2022-10-16T10:43:26;100254.44;;;18.86;100.00
23996;BME280;12207;50.076;8.848;2022-10-16T10:45:55;100245.56;;;18.73;100.00
23996;BME280;12207;50.076;8.848;2022-10-16T10:48:46;100260.97;;;18.68;100.00
23996;BME280;12207;50.076;8.848;2022-10-16T10:51:28;100262.00;;;18.34;100.00
23996;BME280;12207;50.076;8.848;2022-10-16T10:54:02;100259.09;;;18.61;100.00
23996;BME280;12207;50.076;8.848;2022-10-16T10:56:40;100244.69;;;18.73;100.00
23996;BME280;12207;50.076;8.848;2022-10-16T11:06:48;100255.00;;;19.68;100.00
23996;BME280;12207;50.076;8.848;2022-10-16T11:09:26;100249.91;;;19.74;100.00
23996;BME280;12207;50.076;8.848;2022-10-16T11:11:56;100248.16;;;19.75;100.00
23996;BME280;12207;50.076;8.848;2022-10-16T11:14:26;100246.50;;;19.77;100.00
23996;BME280;12207;50.076;8.848;2022-10-16T11:19:28;100240.66;;;19.90;100.00
23996;BME280;12207;50.076;8.848;2022-10-16T11:22:03;100239.94;;;20.72;100.00
23996;BME280;12207;50.076;8.848;2022-10-16T11:24:42;100248.63;;;20.74;100.00
23996;BME280;12207;50.076;8.848;2022-10-16T11:27:11;100247.78;;;20.78;100.00
23996;BME280;12207;50.076;8.848;2022-10-16T11:29:44;100250.47;;;20.86;100.00
23996;BME280;12207;50.076;8.848;2022-10-16T11:32:16;100242.34;;;20.55;100.00
23996;BME280;12207;50.076;8.848;2022-10-16T11:34:47;100239.72;;;19.85;100.00
23996;BME280;12207;50.076;8.848;2022-10-16T11:37:23;100247.72;;;20.03;100.00
23996;BME280;12207;50.076;8.848;2022-10-16T11:39:52;100250.31;;;20.03;100.00
23996;BME280;12207;50.076;8.848;2022-10-16T11:42:21;100246.00;;;20.02;100.00
23996;BME280;12207;50.076;8.848;2022-10-16T11:49:47;100247.88;;;20.14;100.00
23996;BME280;12207;50.076;8.848;2022-10-16T11:54:50;100248.53;;;20.65;100.00
23996;BME280;12207;50.076;8.848;2022-10-16T11:57:28;100254.69;;;20.76;100.00
23996;BME280;12207;50.076;8.848;2022-10-16T12:08:11;100257.22;;;20.70;100.00
23996;BME280;12207;50.076;8.848;2022-10-16T12:10:39;100257.94;;;20.58;100.00
23996;BME280;12207;50.076;8.848;2022-10-16T12:15:51;100243.75;;;19.68;100.00
23996;BME280;12207;50.076;8.848;2022-10-16T12:18:22;100239.63;;;19.79;100.00
23996;BME280;12207;50.076;8.848;2022-10-16T12:20:55;100248.44;;;19.92;100.00
23996;BME280;12207;50.076;8.848;2022-10-16T12:23:25;100257.22;;;20.04;100.00
23996;BME280;12207;50.076;8.848;2022-10-16T12:25:55;100235.84;;;20.18;100.00
23996;BME280;12207;50.076;8.848;2022-10-16T12:28:25;100232.75;;;20.48;100.00
23996;BME280;12207;50.076;8.848;2022-10-16T12:31:00;100234.59;;;20.57;100.00
23996;BME280;12207;50.076;8.848;2022-10-16T12:33:32;100239.88;;;20.66;100.00
23996;BME280;12207;50.076;8.848;2022-10-16T12:36:00;100238.22;;;20.73;100.00
23996;BME280;12207;50.076;8.848;2022-10-16T12:38:31;100244.25;;;20.70;100.00
23996;BME280;12207;50.076;8.848;2022-10-16T12:41:05;100251.13;;;20.66;100.00
23996;BME280;12207;50.076;8.848;2022-10-16T12:46:02;100250.84;;;20.45;100.00
23996;BME280;12207;50.076;8.848;2022-10-16T12:48:28;100258.78;;;20.54;100.00
23996;BME280;12207;50.076;8.848;2022-10-16T12:50:55;100258.53;;;20.37;100.00
23996;BME280;12207;50.076;8.848;2022-10-16T12:53:23;100263.47;;;20.19;100.00
23996;BME280;12207;50.076;8.848;2022-10-16T12:55:58;100261.34;;;20.54;100.00
23996;BME280;12207;50.076;8.848;2022-10-16T13:01:13;100271.97;;;20.74;100.00
23996;BME280;12207;50.076;8.848;2022-10-16T13:03:47;100276.94;;;20.57;100.00
23996;BME280;12207;50.076;8.848;2022-10-16T13:06:22;100269.06;;;20.49;100.00
23996;BME280;12207;50.076;8.848;2022-10-16T13:19:55;100267.56;;;20.67;100.00
23996;BME280;12207;50.076;8.848;2022-10-16T13:30:23;100279.44;;;20.49;100.00
23996;BME280;12207;50.076;8.848;2022-10-16T13:32:53;100277.53;;;20.35;100.00
23996;BME280;12207;50.076;8.848;2022-10-16T13:35:23;100271.38;;;20.26;100.00
23996;BME280;12207;50.076;8.848;2022-10-16T13:37:50;100271.09;;;20.07;100.00
23996;BME280;12207;50.076;8.848;2022-10-16T13:40:18;100269.38;;;20.07;100.00
23996;BME280;12207;50.076;8.848;2022-10-16T13:42:45;100274.59;;;20.10;100.00
23996;BME280;12207;50.076;8.848;2022-10-16T13:45:21;100282.19;;;19.96;100.00
23996;BME280;12207;50.076;8.848;2022-10-16T13:47:48;100278.00;;;20.06;100.00
23996;BME280;12207;50.076;8.848;2022-10-16T13:50:16;100275.53;;;20.15;100.00
23996;BME280;12207;50.076;8.848;2022-10-16T13:52:43;100269.72;;;20.33;100.00
23996;BME280;12207;50.076;8.848;2022-10-16T13:55:16;100275.88;;;20.41;100.00
23996;BME280;12207;50.076;8.848;2022-10-16T13:57:43;100277.59;;;20.41;100.00
23996;BME280;12207;50.076;8.848;2022-10-16T14:00:17;100277.44;;;20.29;100.00
23996;BME280;12207;50.076;8.848;2022-10-16T14:02:44;100267.13;;;20.32;100.00
23996;BME280;12207;50.076;8.848;2022-10-16T14:05:13;100271.28;;;20.22;100.00
23996;BME280;12207;50.076;8.848;2022-10-16T14:07:40;100278.03;;;20.09;100.00
23996;BME280;12207;50.076;8.848;2022-10-16T14:10:22;100275.06;;;19.82;100.00
23996;BME280;12207;50.076;8.848;2022-10-16T14:12:56;100269.09;;;19.87;100.00
23996;BME280;12207;50.076;8.848;2022-10-16T14:15:23;100273.34;;;19.82;100.00
23996;BME280;12207;50.076;8.848;2022-10-16T14:17:50;100270.78;;;19.85;100.00
23996;BME280;12207;50.076;8.848;2022-10-16T14:20:18;100262.78;;;19.70;100.00
23996;BME280;12207;50.076;8.848;2022-10-16T14:22:46;100260.16;;;19.67;100.00